KRTN

Raton Municipal / Crews Field Airport

Raton, New Mexico, USA
METAR KRTN 280053Z AUTO 19020G30KT 10SM CLR 28/M17 A2990 RMK AO2 PK WND 20033/0012 SLP028 T02781167
Observed Flight Rules
May-28 @ 00:53 UTC (19 minutes ago) Visual Flight Rules
Wind Visibility Clouds
190° at 20 knots
 Gusting to 30 knots
10 miles
  • Clear skies
Temperatures Readings
Current 28°C / 82°F
Dewpoint -17°C / 1°F
Humidity 4%
Altimeter 29.9" Hg
Pressure 1002.8 hPa
Elevation 1936
METAR KRTN 280053Z AUTO 19020G30KT 10SM CLR 28/M17 A2990 RMK AO2 PK WND 20033/0012 SLP028 T02781167
Observed Flight Rules
May-28 @ 00:53 UTC
(19 minutes ago)
VFR
Wind Visibility
190° at 20 knots
 Gusting to 30 knots
10 miles
Clouds
  • Clear skies
Temperature Dewpoint
28°C / 82°F -17°C / 1°F
Humidity Altimeter Pressure
4% 29.9" Hg 1002.8 hPa